Time;durP1;ratioP1;P1;durP2;ratioP2;P2;SDS_P1;SDS_P2;PMS_P1;PMS_P2;Temp;Humidity;BMP_temperature;BMP_pressure;BME280_temperature;BME280_humidity;BME280_pressure;Samples;Min_cycle;Max_cycle;Signal;HPM_P1;HPM_P2
2022/12/26 00:01:07;;;;;;;36.50;27.50;;;;;;;10.86;100.00;99612.28;5100905;28;20475;-62
2022/12/26 00:03:34;;;;;;;41.20;28.70;;;;;;;10.81;100.00;99612.75;5100722;28;20477;-61
2022/12/26 00:06:01;;;;;;;35.93;28.53;;;;;;;10.86;100.00;99604.28;5098390;28;20502;-62
2022/12/26 00:08:28;;;;;;;34.63;27.70;;;;;;;10.88;100.00;99607.63;5084012;28;20436;-62
2022/12/26 00:10:57;;;;;;;39.67;28.23;;;;;;;10.76;100.00;99601.69;5081208;28;20480;-61
2022/12/26 00:13:26;;;;;;;37.67;27.63;;;;;;;10.84;100.00;99604.44;5088690;28;20433;-61
2022/12/26 00:15:52;;;;;;;33.77;28.67;;;;;;;10.77;100.00;99605.22;5086079;28;20505;-61
2022/12/26 00:18:19;;;;;;;38.27;27.33;;;;;;;10.75;100.00;99600.03;5086317;28;20435;-62
2022/12/26 00:20:47;;;;;;;35.13;27.90;;;;;;;10.88;100.00;99594.25;5079441;28;20869;-62
2022/12/26 00:23:13;;;;;;;42.70;29.07;;;;;;;10.76;100.00;99598.19;5085286;28;20491;-62
2022/12/26 00:25:40;;;;;;;39.40;28.40;;;;;;;10.81;100.00;99595.88;5085015;28;20468;-62
2022/12/26 00:28:08;;;;;;;35.00;26.97;;;;;;;10.86;100.00;99609.63;5086523;28;20458;-62
2022/12/26 00:30:37;;;;;;;29.83;25.17;;;;;;;10.88;100.00;99613.81;5081472;28;20540;-63
2022/12/26 00:33:04;;;;;;;36.97;26.27;;;;;;;10.82;100.00;99622.47;5083892;28;20757;-62
2022/12/26 00:35:30;;;;;;;31.67;25.07;;;;;;;10.73;100.00;99621.56;5085227;28;20504;-62
2022/12/26 00:37:57;;;;;;;35.33;24.30;;;;;;;10.88;100.00;99623.66;5084776;28;20541;-62
2022/12/26 00:40:24;;;;;;;29.57;22.60;;;;;;;10.65;100.00;99629.53;5082952;28;20476;-62
2022/12/26 00:42:50;;;;;;;25.23;19.63;;;;;;;10.64;100.00;99619.00;5085270;28;20471;-62
2022/12/26 00:45:18;;;;;;;23.70;19.07;;;;;;;10.61;100.00;99622.84;5080387;28;20712;-62
2022/12/26 00:47:45;;;;;;;27.00;21.13;;;;;;;10.66;100.00;99635.72;5082619;28;20448;-62
2022/12/26 00:50:12;;;;;;;26.17;20.10;;;;;;;10.62;100.00;99651.22;5084924;28;20488;-62
2022/12/26 00:52:39;;;;;;;24.13;17.77;;;;;;;10.65;100.00;99642.06;5085505;28;20533;-63
2022/12/26 00:55:06;;;;;;;21.60;17.57;;;;;;;10.56;100.00;99643.84;5079308;28;20459;-62
2022/12/26 00:57:33;;;;;;;23.70;17.13;;;;;;;10.67;100.00;99632.06;5086126;28;20518;-63
2022/12/26 00:59:59;;;;;;;22.77;17.47;;;;;;;10.69;100.00;99630.91;5084638;28;20913;-60
2022/12/26 01:02:43;;;;;;;23.70;19.00;;;;;;;10.64;100.00;99637.72;5078462;28;20479;-62
2022/12/26 01:05:11;;;;;;;25.77;19.87;;;;;;;10.70;100.00;99635.25;5080328;28;20510;-62
2022/12/26 01:07:43;;;;;;;23.43;18.37;;;;;;;10.63;100.00;99638.72;5082786;28;20469;-62
2022/12/26 01:10:12;;;;;;;26.13;19.10;;;;;;;10.63;100.00;99633.38;5077389;28;20475;-62
2022/12/26 01:12:39;;;;;;;25.50;18.83;;;;;;;10.61;100.00;99643.38;5083572;28;20467;-62
2022/12/26 01:15:07;;;;;;;27.63;18.47;;;;;;;10.65;100.00;99648.25;5081467;28;20444;-62
2022/12/26 01:17:35;;;;;;;25.00;18.87;;;;;;;10.63;100.00;99641.41;5082903;28;20488;-62
2022/12/26 01:20:02;;;;;;;27.17;19.83;;;;;;;10.65;100.00;99644.75;5083027;28;20452;-62
2022/12/26 01:22:29;;;;;;;25.50;18.83;;;;;;;10.66;100.00;99641.06;5080466;28;20537;-62
2022/12/26 01:24:56;;;;;;;24.73;18.97;;;;;;;10.54;100.00;99645.84;5083182;28;20452;-62
2022/12/26 01:27:24;;;;;;;23.27;18.73;;;;;;;10.64;100.00;99649.25;5083912;28;20476;-62
2022/12/26 01:29:51;;;;;;;22.00;17.80;;;;;;;10.58;100.00;99665.91;5080812;28;20477;-62
2022/12/26 01:32:18;;;;;;;26.47;19.97;;;;;;;10.71;100.00;99644.97;5081492;28;20547;-62
2022/12/26 01:34:46;;;;;;;27.93;21.10;;;;;;;10.67;100.00;99658.78;5077567;28;20490;-62
2022/12/26 01:37:14;;;;;;;25.10;19.37;;;;;;;10.58;100.00;99659.72;5080032;28;20488;-62
2022/12/26 01:39:41;;;;;;;25.40;19.57;;;;;;;10.58;100.00;99649.88;5072393;28;20517;-62
2022/12/26 01:42:12;;;;;;;28.23;20.77;;;;;;;10.65;100.00;99658.94;5070474;28;20821;-62
2022/12/26 01:44:57;;;;;;;30.67;20.90;;;;;;;10.54;100.00;99668.06;5069868;28;20441;-62
2022/12/26 01:47:27;;;;;;;28.00;21.40;;;;;;;10.54;100.00;99654.69;5072585;28;20500;-62
2022/12/26 01:49:58;;;;;;;28.37;20.40;;;;;;;10.62;100.00;99666.44;5067120;28;20764;-62
2022/12/26 01:52:29;;;;;;;23.37;18.53;;;;;;;10.55;100.00;99667.06;5073606;28;20496;-62
2022/12/26 01:54:56;;;;;;;25.90;20.20;;;;;;;10.61;100.00;99672.78;5072117;28;20456;-62
2022/12/26 01:57:25;;;;;;;25.40;20.47;;;;;;;10.45;100.00;99669.00;5072172;28;20512;-62
2022/12/26 01:59:52;;;;;;;24.03;19.00;;;;;;;10.55;100.00;99677.75;5069964;28;20458;-62
2022/12/26 02:02:21;;;;;;;24.70;18.07;;;;;;;10.45;100.00;99671.66;5069541;28;20994;-62
2022/12/26 02:07:39;;;;;;;26.33;18.00;;;;;;;10.43;100.00;99676.28;5068932;28;20483;-62
2022/12/26 02:10:08;;;;;;;25.90;18.90;;;;;;;10.42;100.00;99685.31;5067925;28;20476;-62
2022/12/26 02:12:35;;;;;;;26.77;19.57;;;;;;;10.40;100.00;99686.44;5070047;28;20513;-63
2022/12/26 02:15:03;;;;;;;25.60;18.50;;;;;;;10.54;100.00;99686.75;5068749;28;20452;-63
2022/12/26 02:17:30;;;;;;;28.00;18.47;;;;;;;10.43;100.00;99684.31;5070683;28;20468;-62
2022/12/26 02:20:04;;;;;;;25.67;19.00;;;;;;;10.48;100.00;99678.53;5073954;28;20481;-62
2022/12/26 02:23:07;;;;;;;28.03;19.93;;;;;;;10.41;100.00;99667.59;5068663;28;20468;-62
2022/12/26 02:26:01;;;;;;;25.97;19.10;;;;;;;10.46;100.00;99661.81;5070800;28;20474;-62
2022/12/26 02:28:50;;;;;;;23.60;18.90;;;;;;;10.34;100.00;99650.50;5070595;28;20482;-62
2022/12/26 02:31:23;;;;;;;33.20;21.23;;;;;;;10.29;100.00;99652.78;5070069;28;20511;-62
2022/12/26 02:33:59;;;;;;;29.70;19.23;;;;;;;10.34;100.00;99661.19;5069940;28;20481;-62
2022/12/26 02:36:43;;;;;;;24.70;18.53;;;;;;;10.24;100.00;99655.06;5071497;28;20496;-62
2022/12/26 02:39:19;;;;;;;25.03;19.20;;;;;;;10.23;100.00;99661.41;5065790;28;20560;-62
2022/12/26 02:41:49;;;;;;;25.70;17.70;;;;;;;10.27;100.00;99670.78;5062131;28;20543;-62
2022/12/26 02:47:11;;;;;;;24.40;17.97;;;;;;;10.31;100.00;99667.69;5059990;28;20533;-62
2022/12/26 03:15:16;;;;;;;24.60;18.70;;;;;;;10.29;100.00;99676.81;5078580;28;21100;-62
2022/12/26 03:17:43;;;;;;;24.73;19.50;;;;;;;10.35;100.00;99689.59;5080039;28;20494;-62
2022/12/26 03:20:14;;;;;;;29.10;20.23;;;;;;;10.31;100.00;99680.16;5078218;28;20448;-62
2022/12/26 03:22:44;;;;;;;25.53;19.57;;;;;;;10.24;100.00;99681.78;5080233;28;20443;-62
2022/12/26 03:27:57;;;;;;;24.37;17.20;;;;;;;10.25;100.00;99660.25;5079321;28;20451;-62
2022/12/26 03:34:16;;;;;;;23.13;16.43;;;;;;;10.18;100.00;99669.88;5079869;28;20483;-62
2022/12/26 03:35:57;;;;;;;22.63;17.43;;;;;;;10.03;100.00;99674.06;5079829;28;20476;-62
2022/12/26 03:38:30;;;;;;;23.90;17.97;;;;;;;10.04;100.00;99675.75;5085741;28;20874;-62
2022/12/26 04:20:36;;;;;;;25.50;18.50;;;;;;;9.88;100.00;99701.28;5100963;28;20466;-63
2022/12/26 04:45:20;;;;;;;25.80;17.57;;;;;;;9.92;100.00;99699.97;5101224;28;20450;-62
2022/12/26 04:50:28;;;;;;;26.33;16.80;;;;;;;9.92;100.00;99704.50;5070861;28;20838;-62
2022/12/26 04:53:00;;;;;;;23.17;16.20;;;;;;;9.94;100.00;99714.00;5102563;28;20497;-63
2022/12/26 04:55:28;;;;;;;22.07;16.43;;;;;;;9.99;100.00;99711.75;5100382;28;20455;-62
2022/12/26 04:57:56;;;;;;;20.00;15.13;;;;;;;9.92;100.00;99713.34;5102891;28;20497;-62
2022/12/26 05:00:24;;;;;;;19.80;14.60;;;;;;;9.89;100.00;99723.47;5100531;28;20480;-62
2022/12/26 05:11:09;;;;;;;19.03;14.40;;;;;;;9.87;100.00;99736.97;5100817;28;20467;-62
2022/12/26 05:13:37;;;;;;;19.10;14.20;;;;;;;9.98;100.00;99736.78;5102332;28;20460;-62
2022/12/26 05:29:46;;;;;;;18.90;14.03;;;;;;;9.92;100.00;99740.03;5101746;28;20492;-62
2022/12/26 05:34:54;;;;;;;19.43;14.17;;;;;;;9.84;100.00;99749.78;5057917;28;20714;-62
2022/12/26 05:37:20;;;;;;;18.17;13.20;;;;;;;9.79;100.00;99750.22;5101403;28;20475;-62
2022/12/26 05:39:47;;;;;;;21.20;14.80;;;;;;;9.91;100.00;99751.72;5100071;28;20487;-62
2022/12/26 05:42:13;;;;;;;20.30;15.27;;;;;;;9.84;100.00;99760.47;5101110;28;20480;-62
2022/12/26 05:44:40;;;;;;;19.70;15.00;;;;;;;9.95;100.00;99755.78;5101480;28;20456;-62
2022/12/26 05:47:08;;;;;;;19.67;14.77;;;;;;;9.82;100.00;99751.75;5100988;28;20490;-62
2022/12/26 05:49:35;;;;;;;18.70;14.57;;;;;;;9.90;100.00;99760.72;5100046;28;20475;-62
2022/12/26 05:52:02;;;;;;;18.93;14.40;;;;;;;9.89;100.00;99761.69;5100938;28;20507;-62
2022/12/26 05:54:29;;;;;;;22.07;14.40;;;;;;;9.93;100.00;99764.91;5100167;28;20894;-62
2022/12/26 05:56:55;;;;;;;20.77;14.57;;;;;;;9.97;100.00;99763.63;5100410;28;21186;-62
2022/12/26 05:59:22;;;;;;;19.73;15.47;;;;;;;9.97;100.00;99763.63;5100486;28;20443;-62
2022/12/26 06:01:49;;;;;;;20.60;15.30;;;;;;;9.95;100.00;99771.78;5100648;28;20471;-62
2022/12/26 06:04:17;;;;;;;20.23;15.00;;;;;;;10.06;100.00;99777.94;5100646;28;20447;-62
2022/12/26 06:06:44;;;;;;;21.77;15.70;;;;;;;9.91;100.00;99781.09;5100162;28;20491;-62
2022/12/26 06:09:12;;;;;;;16.90;12.90;;;;;;;10.08;100.00;99784.78;5100282;28;20443;-62
2022/12/26 06:11:38;;;;;;;18.87;15.60;;;;;;;9.94;100.00;99785.28;5099401;28;20503;-62
2022/12/26 06:14:05;;;;;;;17.17;13.50;;;;;;;9.87;100.00;99784.19;5101231;28;20439;-62
2022/12/26 06:16:32;;;;;;;16.73;12.03;;;;;;;9.90;100.00;99782.06;5099746;28;20506;-62
2022/12/26 06:18:58;;;;;;;19.13;13.60;;;;;;;9.95;100.00;99800.34;5100595;28;20489;-62
2022/12/26 06:21:27;;;;;;;17.27;12.90;;;;;;;9.78;100.00;99784.09;5099537;28;20510;-62
2022/12/26 06:23:53;;;;;;;19.83;12.80;;;;;;;9.89;100.00;99779.53;5100725;28;20463;-61
2022/12/26 06:26:20;;;;;;;15.40;12.03;;;;;;;9.70;100.00;99772.47;5083430;28;20468;-62
2022/12/26 06:28:47;;;;;;;16.00;12.17;;;;;;;9.80;100.00;99775.94;5093858;28;20443;-62
2022/12/26 06:31:15;;;;;;;15.63;12.17;;;;;;;9.75;100.00;99784.38;5099565;28;20482;-62
2022/12/26 06:33:42;;;;;;;18.63;14.20;;;;;;;9.78;100.00;99781.41;5100382;28;20467;-62
2022/12/26 06:36:11;;;;;;;18.30;12.37;;;;;;;9.88;100.00;99775.22;5099470;28;20914;-62
2022/12/26 06:38:39;;;;;;;17.30;13.43;;;;;;;9.95;100.00;99776.31;5101076;28;20495;-62
2022/12/26 06:41:07;;;;;;;19.60;14.03;;;;;;;9.92;100.00;99777.41;5099193;28;20476;-62
2022/12/26 06:43:33;;;;;;;17.83;13.30;;;;;;;9.88;100.00;99767.22;5099860;28;20444;-62
2022/12/26 06:46:01;;;;;;;19.70;14.13;;;;;;;9.81;100.00;99772.28;5099889;28;20463;-62
2022/12/26 06:48:28;;;;;;;19.00;14.03;;;;;;;9.74;100.00;99774.69;5100483;28;20435;-62
2022/12/26 06:50:55;;;;;;;16.47;12.37;;;;;;;9.83;100.00;99772.97;5098796;28;20538;-62
2022/12/26 06:53:22;;;;;;;15.77;13.00;;;;;;;9.85;100.00;99778.16;5101325;28;21010;-62
2022/12/26 06:55:51;;;;;;;16.57;13.07;;;;;;;9.88;100.00;99761.88;5098244;28;20480;-62
2022/12/26 06:58:18;;;;;;;16.50;12.60;;;;;;;9.82;100.00;99767.78;5100509;28;20466;-62
2022/12/26 07:00:45;;;;;;;19.80;14.80;;;;;;;9.90;100.00;99755.38;5099041;28;20468;-62
2022/12/26 07:03:11;;;;;;;17.67;13.10;;;;;;;9.88;100.00;99757.34;5100859;28;20463;-62
2022/12/26 07:05:39;;;;;;;16.73;13.37;;;;;;;9.98;100.00;99760.81;5092270;28;20749;-62
2022/12/26 07:08:06;;;;;;;17.87;14.10;;;;;;;9.93;100.00;99759.56;5100668;28;20877;-62
2022/12/26 07:10:35;;;;;;;17.17;13.30;;;;;;;9.94;100.00;99754.06;5101310;28;20486;-62
2022/12/26 07:13:03;;;;;;;16.97;14.07;;;;;;;9.96;100.00;99765.47;5104437;28;20761;-62
2022/12/26 07:15:30;;;;;;;17.70;14.87;;;;;;;9.89;100.00;99774.22;5086139;28;20464;-63
2022/12/26 07:17:56;;;;;;;17.30;13.60;;;;;;;9.94;100.00;99790.63;5102777;28;20486;-61
2022/12/26 07:20:23;;;;;;;15.17;12.00;;;;;;;9.89;100.00;99790.22;5100878;28;20520;-62
2022/12/26 07:22:50;;;;;;;20.00;14.20;;;;;;;9.96;100.00;99808.19;5105197;28;20438;-62
2022/12/26 07:25:17;;;;;;;18.37;15.10;;;;;;;9.82;100.00;99808.66;5099402;28;20456;-62
2022/12/26 07:27:44;;;;;;;19.10;15.30;;;;;;;9.85;100.00;99812.88;5089687;28;20451;-63
2022/12/26 07:30:13;;;;;;;20.03;15.10;;;;;;;9.79;100.00;99816.94;5093529;28;20452;-62
2022/12/26 07:32:39;;;;;;;15.70;13.13;;;;;;;9.89;100.00;99820.44;5100955;28;20474;-62
2022/12/26 07:35:06;;;;;;;16.13;12.10;;;;;;;9.83;100.00;99817.53;5104440;28;20439;-62
2022/12/26 07:37:33;;;;;;;16.07;12.37;;;;;;;9.88;100.00;99821.44;5103235;28;20478;-62
2022/12/26 07:40:00;;;;;;;15.03;12.20;;;;;;;9.75;100.00;99824.41;5103166;28;21087;-62
2022/12/26 07:42:27;;;;;;;13.70;12.30;;;;;;;9.77;100.00;99814.47;5102655;28;20570;-61
2022/12/26 07:44:54;;;;;;;12.23;10.93;;;;;;;9.65;100.00;99804.91;5082160;28;20440;-66
2022/12/26 07:47:22;;;;;;;14.90;12.27;;;;;;;9.62;100.00;99821.25;5093285;28;20486;-63
2022/12/26 07:49:49;;;;;;;16.93;12.80;;;;;;;9.58;100.00;99822.50;5103409;28;20473;-62
2022/12/26 07:52:17;;;;;;;15.50;12.40;;;;;;;9.59;100.00;99818.88;5102828;28;20502;-62
2022/12/26 07:54:43;;;;;;;14.90;12.30;;;;;;;9.68;100.00;99826.00;5103637;28;20455;-62
2022/12/26 07:57:10;;;;;;;15.00;12.70;;;;;;;9.58;100.00;99831.38;5102508;28;20471;-62
2022/12/26 07:59:37;;;;;;;14.27;12.60;;;;;;;9.65;100.00;99828.09;5103322;28;20451;-62
2022/12/26 08:02:04;;;;;;;16.23;13.10;;;;;;;9.59;100.00;99825.03;5102952;28;20473;-62
2022/12/26 08:04:33;;;;;;;14.33;12.13;;;;;;;9.78;100.00;99821.47;5103738;28;20439;-62
2022/12/26 08:07:00;;;;;;;33.20;14.53;;;;;;;9.86;100.00;99812.75;5096615;28;20569;-63
2022/12/26 08:09:27;;;;;;;20.93;14.83;;;;;;;9.63;100.00;99824.75;5100107;28;20508;-62
2022/12/26 08:11:53;;;;;;;18.13;15.43;;;;;;;9.79;100.00;99823.16;5103013;28;20471;-62
2022/12/26 08:14:20;;;;;;;16.90;14.77;;;;;;;9.77;100.00;99819.78;5103700;28;20494;-62
2022/12/26 08:16:47;;;;;;;21.07;17.20;;;;;;;9.66;100.00;99829.81;5101326;28;20513;-66
2022/12/26 08:19:14;;;;;;;24.20;15.77;;;;;;;10.00;100.00;99830.09;5093726;28;20452;-66
2022/12/26 08:21:42;;;;;;;21.40;18.57;;;;;;;9.90;100.00;99832.81;5078251;28;20472;-66
2022/12/26 08:24:09;;;;;;;19.13;16.93;;;;;;;9.89;100.00;99815.09;5088460;28;20455;-66
2022/12/26 08:26:36;;;;;;;20.63;17.37;;;;;;;10.04;100.00;99827.97;5085847;28;20468;-66
2022/12/26 08:29:02;;;;;;;24.57;19.87;;;;;;;9.90;100.00;99816.78;5084880;28;20948;-65
2022/12/26 08:31:29;;;;;;;22.10;18.60;;;;;;;9.92;100.00;99821.97;5081859;28;20480;-65
2022/12/26 08:33:57;;;;;;;23.53;19.07;;;;;;;9.83;100.00;99825.53;5084823;28;20460;-65
2022/12/26 08:36:24;;;;;;;20.70;17.47;;;;;;;9.95;100.00;99829.72;5102965;28;20546;-66
2022/12/26 08:38:52;;;;;;;23.20;19.20;;;;;;;9.86;100.00;99822.56;5091875;28;20504;-65
2022/12/26 08:41:19;;;;;;;24.20;19.20;;;;;;;9.94;100.00;99833.34;5078820;28;20495;-65
2022/12/26 08:43:49;;;;;;;22.70;18.30;;;;;;;9.82;100.00;99824.69;5083784;28;20459;-65
2022/12/26 08:46:16;;;;;;;22.50;18.47;;;;;;;9.86;100.00;99836.78;5102571;28;20468;-66
2022/12/26 08:48:43;;;;;;;21.60;17.97;;;;;;;9.86;100.00;99830.56;5090590;28;20444;-66
2022/12/26 08:51:13;;;;;;;21.83;17.70;;;;;;;9.85;100.00;99829.72;5081283;28;20484;-66
2022/12/26 08:53:40;;;;;;;21.90;18.53;;;;;;;9.71;100.00;99835.56;5097365;28;20533;-66
2022/12/26 08:56:13;;;;;;;25.87;18.67;;;;;;;9.78;100.00;99834.81;5101160;28;20470;-66
2022/12/26 08:58:39;;;;;;;23.10;18.23;;;;;;;9.79;100.00;99846.31;5089595;28;21031;-66
2022/12/26 09:01:07;;;;;;;21.70;17.03;;;;;;;9.64;100.00;99845.97;5099984;28;20532;-66
2022/12/26 09:03:34;;;;;;;21.20;16.60;;;;;;;9.72;100.00;99831.88;5081989;28;20456;-66
2022/12/26 09:06:01;;;;;;;19.10;15.00;;;;;;;9.96;100.00;99831.38;5086614;28;20479;-66
2022/12/26 09:08:29;;;;;;;19.40;16.03;;;;;;;9.77;100.00;99838.50;5097898;28;20459;-66
2022/12/26 09:10:55;;;;;;;17.73;14.23;;;;;;;9.72;100.00;99834.53;5088330;28;20822;-66
2022/12/26 09:13:24;;;;;;;18.00;14.43;;;;;;;9.83;100.00;99828.22;5084639;28;20507;-66
2022/12/26 09:15:50;;;;;;;16.90;13.83;;;;;;;9.93;100.00;99837.00;5080753;28;20822;-66
2022/12/26 09:18:17;;;;;;;15.40;13.17;;;;;;;9.89;100.00;99828.44;5084192;28;20449;-66
2022/12/26 09:20:44;;;;;;;15.57;13.23;;;;;;;9.99;100.00;99844.44;5080939;28;21081;-66
2022/12/26 09:23:11;;;;;;;17.43;13.73;;;;;;;9.99;100.00;99844.44;5082963;28;20505;-66
2022/12/26 09:25:38;;;;;;;17.70;12.37;;;;;;;9.96;100.00;99837.56;5080968;28;20730;-66
2022/12/26 09:28:06;;;;;;;15.83;13.80;;;;;;;10.18;100.00;99848.84;5083469;28;20497;-66
2022/12/26 09:30:34;;;;;;;13.67;12.00;;;;;;;10.14;100.00;99839.47;5080589;28;20468;-68
2022/12/26 09:33:02;;;;;;;14.47;12.50;;;;;;;10.23;100.00;99849.25;5080988;28;20473;-64
2022/12/26 09:35:29;;;;;;;15.17;13.17;;;;;;;10.18;100.00;99841.66;5092927;28;20473;-64
2022/12/26 09:37:56;;;;;;;12.73;11.10;;;;;;;10.18;100.00;99848.84;5086039;28;20867;-64
2022/12/26 09:40:25;;;;;;;14.10;12.20;;;;;;;10.73;100.00;99846.16;5081781;28;20484;-65
2022/12/26 09:43:02;;;;;;;14.07;12.53;;;;;;;11.83;100.00;99835.97;5083485;28;21537;-65
2022/12/26 09:45:43;;;;;;;14.17;12.70;;;;;;;12.23;98.79;99837.19;5087643;28;20463;-64
2022/12/26 09:48:18;;;;;;;12.70;10.50;;;;;;;11.88;99.06;99841.69;5079360;28;20460;-65
2022/12/26 09:50:48;;;;;;;11.50;9.33;;;;;;;13.53;90.17;99837.56;5091448;28;20498;-65
2022/12/26 09:53:19;;;;;;;8.57;7.50;;;;;;;13.86;87.51;99836.69;5100349;28;20503;-63
2022/12/26 09:55:49;;;;;;;7.07;6.33;;;;;;;13.46;85.76;99827.69;5098615;28;20459;-64
2022/12/26 09:58:22;;;;;;;7.43;6.33;;;;;;;13.43;87.65;99815.44;5084210;28;20524;-63
2022/12/26 10:00:55;;;;;;;5.97;5.37;;;;;;;13.37;85.98;99826.88;5086281;28;20509;-63
2022/12/26 10:03:23;;;;;;;5.80;5.13;;;;;;;12.08;93.01;99828.09;5081239;28;20442;-63
2022/12/26 10:06:01;;;;;;;6.30;5.40;;;;;;;12.29;93.37;99827.69;5077386;28;20533;-63
2022/12/26 10:08:37;;;;;;;6.33;5.27;;;;;;;12.96;90.43;99822.28;5082209;28;20470;-64
2022/12/26 10:11:08;;;;;;;5.70;4.97;;;;;;;12.88;89.96;99821.44;5088709;28;21007;-64
2022/12/26 10:13:39;;;;;;;6.80;5.37;;;;;;;12.49;91.29;99825.56;5100294;28;20504;-64
2022/12/26 10:16:12;;;;;;;10.80;5.70;;;;;;;11.84;95.23;99826.13;5091074;28;20505;-63
2022/12/26 10:18:44;;;;;;;6.90;6.30;;;;;;;12.42;95.65;99828.06;5080716;28;20836;-64
2022/12/26 10:21:31;;;;;;;9.13;6.40;;;;;;;12.41;92.98;99817.50;5080655;28;20475;-64
2022/12/26 10:24:04;;;;;;;7.67;6.97;;;;;;;12.44;95.56;99823.38;5084483;28;20516;-64
2022/12/26 10:26:35;;;;;;;6.73;6.10;;;;;;;12.37;93.43;99808.94;5099683;28;20487;-64
2022/12/26 10:29:06;;;;;;;6.67;6.10;;;;;;;12.43;94.27;99815.50;5100350;28;20483;-64
2022/12/26 10:31:37;;;;;;;12.73;7.40;;;;;;;12.73;93.00;99819.41;5100349;28;20564;-64
2022/12/26 10:34:09;;;;;;;5.70;4.20;;;;;;;13.68;85.96;99820.75;5081356;28;20503;-64
2022/12/26 10:36:41;;;;;;;4.50;4.10;;;;;;;13.09;84.23;99820.94;5096858;28;20467;-64
2022/12/26 10:39:17;;;;;;;4.53;4.13;;;;;;;12.74;88.71;99817.56;5100640;28;20495;-64
2022/12/26 10:41:46;;;;;;;3.70;3.40;;;;;;;12.06;90.63;99830.09;5099689;28;20491;-64
2022/12/26 10:44:14;;;;;;;4.33;3.93;;;;;;;11.33;92.60;99806.38;5099705;28;20439;-63
2022/12/26 10:47:12;;;;;;;9.23;3.20;;;;;;;11.29;94.65;99835.28;5100384;28;20510;-63
2022/12/26 10:49:38;;;;;;;4.70;3.23;;;;;;;11.09;94.74;99829.25;5099935;28;20443;-63
2022/12/26 10:52:05;;;;;;;10.97;4.87;;;;;;;11.08;95.09;99832.97;5099462;28;20483;-63
2022/12/26 10:54:32;;;;;;;3.80;3.50;;;;;;;11.21;94.64;99824.53;5099970;28;21018;-64
2022/12/26 10:57:00;;;;;;;4.83;2.90;;;;;;;11.14;94.21;99834.16;5099989;28;20483;-64
2022/12/26 10:59:40;;;;;;;5.77;4.00;;;;;;;11.15;94.55;99842.03;5100029;28;20966;-64
2022/12/26 11:02:24;;;;;;;4.00;3.23;;;;;;;11.26;93.88;99841.78;5100282;28;20932;-63
2022/12/26 11:05:07;;;;;;;4.97;3.20;;;;;;;11.22;93.62;99829.72;5096342;28;20440;-64
2022/12/26 11:07:37;;;;;;;8.47;4.40;;;;;;;11.42;93.00;99834.88;5080587;28;20570;-64
2022/12/26 11:10:05;;;;;;;4.90;3.20;;;;;;;11.28;94.09;99833.59;5091273;28;20455;-64
2022/12/26 11:12:39;;;;;;;4.03;3.73;;;;;;;11.25;95.02;99828.59;5100037;28;20501;-65
2022/12/26 11:15:18;;;;;;;4.40;4.00;;;;;;;11.16;94.84;99827.66;5099928;28;21019;-65
2022/12/26 11:17:49;;;;;;;8.60;4.23;;;;;;;11.04;95.79;99826.22;5099971;28;20503;-65
2022/12/26 11:20:26;;;;;;;4.57;4.00;;;;;;;11.09;96.04;99839.97;5099134;28;20791;-65
2022/12/26 11:22:53;;;;;;;4.40;3.97;;;;;;;10.93;97.32;99825.44;5100525;28;20439;-64
2022/12/26 11:25:23;;;;;;;4.33;3.90;;;;;;;10.95;96.73;99827.16;5098382;28;20536;-65
2022/12/26 11:27:51;;;;;;;4.10;3.63;;;;;;;10.96;97.04;99832.34;5100381;28;20477;-65
2022/12/26 11:30:28;;;;;;;4.63;3.63;;;;;;;10.87;97.66;99822.56;5099170;28;20478;-65
2022/12/26 11:33:20;;;;;;;4.50;4.10;;;;;;;11.00;97.12;99831.03;5099800;28;20436;-66
2022/12/26 11:35:50;;;;;;;5.90;3.83;;;;;;;10.84;96.91;99820.19;5084647;28;21127;-63
2022/12/26 11:43:40;;;;;;;6.30;4.57;;;;;;;10.90;97.23;99825.78;5067437;28;20453;-63
2022/12/26 11:46:07;;;;;;;7.93;4.50;;;;;;;10.74;97.69;99825.59;5082340;28;20480;-63
2022/12/26 11:48:35;;;;;;;11.40;4.00;;;;;;;10.80;97.35;99825.03;5076642;28;20436;-63
2022/12/26 11:51:02;;;;;;;3.90;3.60;;;;;;;10.86;97.14;99824.38;5078969;28;20476;-63
2022/12/26 11:53:30;;;;;;;4.27;3.90;;;;;;;10.86;96.85;99818.22;5078272;28;20448;-63
2022/12/26 11:56:02;;;;;;;4.67;3.53;;;;;;;10.94;96.29;99804.91;5079144;28;20514;-63
2022/12/26 11:58:30;;;;;;;4.37;3.97;;;;;;;10.98;95.96;99792.06;5084880;28;21026;-63
2022/12/26 12:01:22;;;;;;;3.70;3.37;;;;;;;10.78;96.06;99770.84;5080589;28;20484;-64
2022/12/26 12:03:50;;;;;;;7.30;3.70;;;;;;;10.82;95.67;99798.13;5082393;28;20448;-64
2022/12/26 12:06:35;;;;;;;6.97;3.40;;;;;;;10.82;95.90;99793.59;5084970;28;20488;-63
2022/12/26 12:09:07;;;;;;;4.10;3.50;;;;;;;10.85;95.97;99795.97;5073851;28;20490;-62
2022/12/26 12:11:41;;;;;;;3.83;3.27;;;;;;;10.85;95.88;99804.00;5081989;28;20467;-63
2022/12/26 12:14:18;;;;;;;7.37;3.53;;;;;;;10.93;95.76;99805.91;5085379;28;20849;-63
2022/12/26 12:16:53;;;;;;;3.50;3.20;;;;;;;11.18;94.45;99803.41;5082735;28;20566;-63
2022/12/26 12:19:38;;;;;;;3.40;3.10;;;;;;;11.22;93.90;99805.63;5090044;28;20850;-62
2022/12/26 12:22:33;;;;;;;6.07;2.93;;;;;;;10.93;94.67;99790.69;5082853;28;20476;-62
2022/12/26 12:25:34;;;;;;;3.93;2.97;;;;;;;10.95;95.52;99811.09;5065439;28;20473;-63
2022/12/26 12:28:08;;;;;;;4.70;3.00;;;;;;;10.85;96.07;99797.78;5059315;28;20473;-62
2022/12/26 12:30:39;;;;;;;6.33;3.37;;;;;;;10.78;97.04;99788.72;5062482;28;20476;-63
2022/12/26 12:33:18;;;;;;;3.40;3.20;;;;;;;10.72;98.35;99790.16;5095411;28;20443;-62
2022/12/26 12:35:58;;;;;;;3.40;3.10;;;;;;;10.78;98.14;99789.56;5101919;28;20536;-62
2022/12/26 12:38:30;;;;;;;4.07;3.40;;;;;;;10.71;99.37;99802.72;5103117;28;20475;-61
2022/12/26 12:41:06;;;;;;;3.30;3.00;;;;;;;10.84;99.38;99804.97;5102041;28;20489;-61
2022/12/26 12:43:40;;;;;;;7.13;5.03;;;;;;;10.89;99.32;99809.88;5103087;28;20420;-61
2022/12/26 12:46:13;;;;;;;4.30;3.90;;;;;;;10.83;99.65;99806.00;5096093;28;20480;-62
2022/12/26 12:48:51;;;;;;;7.93;4.10;;;;;;;10.82;99.08;99803.47;5083773;28;20437;-62
2022/12/26 12:51:27;;;;;;;5.33;3.73;;;;;;;10.71;100.00;99810.72;5093947;28;20475;-62
2022/12/26 12:54:21;;;;;;;4.23;3.93;;;;;;;10.59;99.48;99797.72;5103053;28;20436;-62
2022/12/26 12:56:53;;;;;;;5.30;4.63;;;;;;;10.91;98.65;99811.41;5102084;28;20699;-62
2022/12/26 12:59:28;;;;;;;8.43;4.50;;;;;;;10.80;98.70;99811.66;5100992;28;20481;-63
2022/12/26 13:01:58;;;;;;;6.20;4.70;;;;;;;10.64;100.00;99814.16;5101732;28;20487;-62
2022/12/26 13:04:28;;;;;;;5.70;4.60;;;;;;;10.56;100.00;99828.28;5089087;28;20505;-63
2022/12/26 13:07:00;;;;;;;6.67;4.97;;;;;;;10.52;100.00;99832.25;5089883;28;20479;-63
2022/12/26 13:09:30;;;;;;;5.63;5.03;;;;;;;10.44;100.00;99829.50;5090447;28;20441;-63
2022/12/26 13:12:01;;;;;;;5.77;5.27;;;;;;;10.29;100.00;99835.28;5094099;28;20468;-64
2022/12/26 13:14:32;;;;;;;12.30;5.70;;;;;;;10.08;100.00;99834.69;5096804;28;20932;-62
2022/12/26 13:17:03;;;;;;;7.30;5.47;;;;;;;10.07;100.00;99843.69;5082204;28;20525;-62
2022/12/26 13:19:37;;;;;;;6.00;5.30;;;;;;;10.03;100.00;99832.47;5092511;28;20491;-62
2022/12/26 13:22:11;;;;;;;5.97;5.27;;;;;;;9.87;100.00;99833.09;5061399;28;20474;-62
2022/12/26 13:24:39;;;;;;;6.30;5.80;;;;;;;9.95;100.00;99862.59;5090830;28;20436;-62
2022/12/26 13:27:11;;;;;;;8.37;6.07;;;;;;;9.81;100.00;99884.41;5101895;28;20467;-62
2022/12/26 13:29:40;;;;;;;5.73;3.70;;;;;;;9.47;100.00;99892.91;5101927;28;20446;-63
2022/12/26 13:32:17;;;;;;;5.10;2.80;;;;;;;9.05;100.00;99885.19;5100565;28;20480;-63
2022/12/26 13:34:45;;;;;;;2.13;2.03;;;;;;;9.00;100.00;99893.59;5081858;28;20594;-63
2022/12/26 13:37:48;;;;;;;3.20;2.50;;;;;;;9.12;100.00;99885.50;5084118;28;21041;-63
2022/12/26 13:40:19;;;;;;;5.20;2.73;;;;;;;9.12;100.00;99896.16;5093338;28;20518;-66
2022/12/26 13:45:57;;;;;;;3.73;2.83;;;;;;;9.20;100.00;99907.81;5083328;28;20475;-67
2022/12/26 13:48:47;;;;;;;6.40;3.30;;;;;;;8.96;100.00;99910.03;5099972;28;20445;-65